Time;durP1;ratioP1;P1;durP2;ratioP2;P2;SDS_P1;SDS_P2;PMS_P1;PMS_P2;Temp;Humidity;BMP_temperature;BMP_pressure;BME280_temperature;BME280_humidity;BME280_pressure;Samples;Min_cycle;Max_cycle;Signal;HPM_P1;HPM_P2
2021/12/24 00:02:08;;;;;;;6.78;3.70;;;7.30;99.90;;;;;;5066434;28;20051;-66
2021/12/24 00:04:34;;;;;;;7.53;4.03;;;7.30;99.90;;;;;;5068983;28;20033;-67
2021/12/24 00:06:59;;;;;;;5.32;3.72;;;7.40;99.90;;;;;;5068016;28;20039;-67
2021/12/24 00:09:27;;;;;;;9.20;3.83;;;7.40;99.90;;;;;;5069971;28;20361;-67
2021/12/24 00:11:57;;;;;;;5.65;3.97;;;7.40;99.90;;;;;;5068329;28;20020;-67
2021/12/24 00:14:25;;;;;;;6.82;4.47;;;7.40;99.90;;;;;;5083102;28;20408;-66
2021/12/24 00:16:54;;;;;;;4.68;3.80;;;7.40;99.90;;;;;;5070022;28;20023;-70
2021/12/24 00:19:35;;;;;;;6.18;4.47;;;7.40;99.90;;;;;;5067410;28;20033;-67
2021/12/24 00:22:53;;;;;;;6.53;4.00;;;7.40;99.90;;;;;;5064011;28;20104;-69
2021/12/24 00:35:59;;;;;;;7.50;4.47;;;7.30;99.90;;;;;;5066615;28;20036;-65
2021/12/24 00:38:25;;;;;;;6.38;3.97;;;7.30;99.90;;;;;;5070745;28;20535;-65
2021/12/24 00:40:51;;;;;;;6.30;4.38;;;7.20;99.90;;;;;;5071322;28;20502;-66
2021/12/24 00:43:17;;;;;;;7.22;4.75;;;7.20;99.90;;;;;;5071034;28;20119;-66
2021/12/24 00:45:44;;;;;;;5.50;3.67;;;7.20;99.90;;;;;;5072323;28;20054;-67
2021/12/24 00:48:14;;;;;;;8.13;3.90;;;7.20;99.90;;;;;;5070777;28;20029;-70
2021/12/24 00:51:18;;;;;;;5.57;3.50;;;7.20;99.90;;;;;;5071350;28;20023;-67
2021/12/24 00:55:58;;;;;;;4.15;3.60;;;7.30;99.90;;;;;;5073455;28;20044;-67
2021/12/24 00:58:23;;;;;;;6.22;3.28;;;7.30;99.90;;;;;;5071047;28;20373;-65
2021/12/24 01:00:50;;;;;;;4.78;3.33;;;7.30;99.90;;;;;;5070820;28;20131;-65
2021/12/24 01:03:15;;;;;;;6.07;3.45;;;7.40;99.90;;;;;;5070608;28;20031;-65
2021/12/24 01:05:41;;;;;;;6.57;3.53;;;7.30;99.90;;;;;;5068501;28;20396;-66
2021/12/24 01:08:09;;;;;;;7.35;3.67;;;7.30;99.90;;;;;;5066818;28;20033;-66
2021/12/24 01:10:47;;;;;;;9.18;3.88;;;7.30;99.90;;;;;;5070562;28;20078;-66
2021/12/24 01:13:13;;;;;;;5.38;3.47;;;7.40;99.90;;;;;;5070407;28;20107;-65
2021/12/24 01:15:51;;;;;;;7.53;3.38;;;7.40;99.90;;;;;;5071052;28;20083;-66
2021/12/24 01:18:31;;;;;;;3.60;3.30;;;7.40;99.90;;;;;;5069768;28;20028;-65
2021/12/24 01:23:38;;;;;;;4.32;3.38;;;7.40;99.90;;;;;;5072587;28;20390;-66
2021/12/24 01:26:09;;;;;;;;;;;7.40;99.90;;;;;;5071606;28;20415;-65
2021/12/24 01:28:48;;;;;;;3.97;3.13;;;7.40;99.90;;;;;;5069321;28;19926;-65
2021/12/24 01:44:56;;;;;;;5.53;3.60;;;7.40;99.90;;;;;;5071981;28;20080;-66
2021/12/24 01:47:22;;;;;;;5.78;3.53;;;7.50;99.90;;;;;;5069960;28;20029;-66
2021/12/24 01:49:48;;;;;;;6.38;3.22;;;7.50;99.90;;;;;;5067600;28;20404;-67
2021/12/24 01:52:15;;;;;;;5.22;3.30;;;7.50;99.90;;;;;;5065276;28;20024;-67
2021/12/24 01:54:42;;;;;;;4.75;3.08;;;7.50;99.90;;;;;;5069065;28;20029;-66
2021/12/24 01:57:12;;;;;;;3.45;3.00;;;7.50;99.90;;;;;;5069212;28;20020;-68
2021/12/24 01:59:40;;;;;;;3.85;3.05;;;7.50;99.90;;;;;;5069515;28;20028;-67
2021/12/24 02:02:05;;;;;;;3.83;2.85;;;7.50;99.90;;;;;;5069593;28;20036;-65
2021/12/24 02:04:31;;;;;;;4.78;2.90;;;7.50;99.90;;;;;;5062422;28;20032;-66
2021/12/24 02:06:57;;;;;;;4.90;2.90;;;7.50;99.90;;;;;;5068409;28;20101;-69
2021/12/24 02:09:23;;;;;;;4.90;3.17;;;7.50;99.90;;;;;;5068737;28;20095;-66
2021/12/24 02:11:48;;;;;;;4.32;2.97;;;7.50;99.90;;;;;;5067763;28;20067;-66
2021/12/24 02:14:18;;;;;;;3.30;2.67;;;7.50;99.90;;;;;;5064550;28;20032;-68
2021/12/24 02:30:09;;;;;;;3.97;2.92;;;7.60;99.90;;;;;;5053430;28;20044;-65
2021/12/24 02:32:40;;;;;;;4.35;2.75;;;7.50;99.90;;;;;;5070619;28;20062;-66
2021/12/24 02:35:06;;;;;;;4.38;2.88;;;7.50;99.90;;;;;;5069372;28;20479;-67
2021/12/24 02:37:32;;;;;;;2.83;2.20;;;7.60;99.90;;;;;;5067567;28;20549;-66
2021/12/24 02:39:58;;;;;;;6.40;2.85;;;7.60;99.90;;;;;;5068041;28;20029;-67
2021/12/24 02:42:23;;;;;;;3.88;2.58;;;7.60;99.90;;;;;;5065513;28;20021;-66
2021/12/24 02:44:51;;;;;;;3.25;2.53;;;7.70;99.90;;;;;;5085722;28;20459;-69
2021/12/24 02:55:16;;;;;;;3.03;2.55;;;7.80;99.90;;;;;;5069827;28;20032;-66
2021/12/24 02:57:44;;;;;;;4.30;2.30;;;7.80;99.90;;;;;;5067575;28;20021;-67
2021/12/24 03:00:19;;;;;;;3.08;2.22;;;7.90;99.90;;;;;;5066669;28;20028;-66
2021/12/24 03:02:47;;;;;;;3.05;2.15;;;7.90;99.90;;;;;;5069317;28;20025;-65
2021/12/24 03:05:15;;;;;;;2.50;2.30;;;7.90;99.90;;;;;;5063808;28;20507;-65
2021/12/24 03:07:42;;;;;;;4.40;1.98;;;7.90;99.90;;;;;;5069068;28;20094;-65
2021/12/24 03:10:15;;;;;;;2.85;2.13;;;7.90;99.90;;;;;;5068744;28;20032;-66
2021/12/24 03:12:44;;;;;;;4.70;2.55;;;8.00;99.90;;;;;;5068673;28;20021;-66
2021/12/24 03:15:12;;;;;;;4.38;2.40;;;8.00;99.90;;;;;;5068479;28;20035;-65
2021/12/24 03:17:38;;;;;;;2.83;2.13;;;8.00;99.90;;;;;;5064007;28;20111;-66
2021/12/24 03:20:09;;;;;;;4.32;2.60;;;8.00;99.90;;;;;;5068209;28;20445;-65
2021/12/24 03:25:03;;;;;;;6.05;2.80;;;7.90;99.90;;;;;;5067161;28;20492;-66
2021/12/24 03:27:29;;;;;;;5.18;2.20;;;7.90;99.90;;;;;;5059483;28;20032;-66
2021/12/24 03:29:57;;;;;;;3.25;2.38;;;7.90;99.90;;;;;;5068237;28;20573;-66
2021/12/24 03:32:23;;;;;;;4.22;2.30;;;8.00;99.90;;;;;;5083925;28;20024;-67
2021/12/24 03:34:48;;;;;;;4.43;2.33;;;7.90;99.90;;;;;;5068165;28;20047;-67
2021/12/24 03:37:14;;;;;;;4.53;2.33;;;7.90;99.90;;;;;;5067534;28;20024;-67
2021/12/24 03:39:40;;;;;;;2.60;2.40;;;7.90;99.90;;;;;;5067959;28;20081;-66
2021/12/24 03:42:06;;;;;;;2.72;2.47;;;7.90;99.90;;;;;;5068515;28;20508;-66
2021/12/24 03:44:38;;;;;;;5.00;2.60;;;7.90;99.90;;;;;;5068471;28;20020;-65
2021/12/24 03:49:52;;;;;;;2.95;2.53;;;8.00;99.90;;;;;;5068460;28;20040;-66
2021/12/24 03:54:55;;;;;;;3.13;2.25;;;8.00;99.90;;;;;;5069685;28;20013;-66
2021/12/24 03:57:22;;;;;;;3.40;2.50;;;8.00;99.90;;;;;;5067231;28;20342;-66
2021/12/24 03:59:47;;;;;;;4.43;2.38;;;8.00;99.90;;;;;;5066688;28;20499;-67
2021/12/24 04:02:13;;;;;;;6.68;2.92;;;8.00;99.90;;;;;;5067090;28;20028;-66
2021/12/24 04:04:39;;;;;;;5.53;2.42;;;8.10;99.90;;;;;;5068412;28;20027;-66
2021/12/24 04:07:06;;;;;;;3.97;2.33;;;8.10;99.90;;;;;;5067272;28;20052;-66
2021/12/24 04:09:33;;;;;;;4.68;2.05;;;8.10;99.90;;;;;;5068255;28;20162;-65
2021/12/24 04:11:59;;;;;;;4.40;2.35;;;8.10;99.90;;;;;;5068066;28;20025;-66
2021/12/24 04:14:25;;;;;;;3.58;2.40;;;8.20;99.90;;;;;;5072347;28;20027;-65
2021/12/24 04:16:50;;;;;;;5.68;2.40;;;8.10;99.90;;;;;;5071798;28;20051;-66
2021/12/24 04:24:50;;;;;;;4.45;2.40;;;8.20;99.90;;;;;;5071023;28;20469;-67
2021/12/24 04:24:56;;;;;;;3.40;2.13;;;8.10;99.90;;;;;;5073037;28;20526;-66
2021/12/24 04:27:31;;;;;;;2.72;2.30;;;8.10;99.90;;;;;;5069665;28;20028;-66
2021/12/24 04:30:20;;;;;;;3.97;2.63;;;8.10;99.90;;;;;;5071968;28;20036;-66
2021/12/24 04:32:54;;;;;;;5.00;2.78;;;8.10;99.90;;;;;;5071722;28;20047;-65
2021/12/24 05:04:12;;;;;;;7.47;3.03;;;7.70;99.90;;;;;;5068107;28;20033;-66
2021/12/24 05:06:48;;;;;;;4.95;2.95;;;7.70;99.90;;;;;;5070154;28;20032;-66
2021/12/24 05:09:15;;;;;;;5.93;2.78;;;7.70;99.90;;;;;;5062757;28;20043;-66
2021/12/24 05:11:41;;;;;;;4.20;2.90;;;7.70;99.90;;;;;;5075027;28;20071;-67
2021/12/24 05:14:07;;;;;;;5.72;2.83;;;7.70;99.90;;;;;;5073477;28;20031;-66
2021/12/24 05:17:22;;;;;;;3.17;2.80;;;7.70;99.90;;;;;;5070430;28;20548;-66
2021/12/24 05:22:08;;;;;;;4.03;2.83;;;7.60;99.90;;;;;;5070798;28;20500;-65
2021/12/24 05:24:34;;;;;;;5.05;2.70;;;7.60;99.90;;;;;;5057412;28;20024;-67
2021/12/24 05:27:02;;;;;;;3.50;2.90;;;7.60;99.90;;;;;;5070072;28;20028;-67
2021/12/24 05:29:28;;;;;;;5.82;2.92;;;7.50;99.90;;;;;;5070406;28;20063;-68
2021/12/24 05:31:54;;;;;;;5.50;2.90;;;7.60;99.90;;;;;;5066234;28;20032;-66
2021/12/24 05:34:20;;;;;;;7.80;3.30;;;7.60;99.90;;;;;;5070608;28;20027;-65
2021/12/24 05:36:47;;;;;;;4.30;2.90;;;7.60;99.90;;;;;;5069661;28;20388;-65
2021/12/24 05:39:15;;;;;;;4.43;3.20;;;7.60;99.90;;;;;;5069380;28;20029;-65
2021/12/24 05:41:41;;;;;;;4.18;3.25;;;7.70;99.90;;;;;;5069990;28;20055;-67
2021/12/24 05:44:09;;;;;;;4.63;3.50;;;7.70;99.90;;;;;;5070168;28;20033;-65
2021/12/24 05:46:36;;;;;;;5.25;3.35;;;7.70;99.90;;;;;;5069598;28;20062;-66
2021/12/24 05:49:02;;;;;;;4.25;3.22;;;7.80;99.90;;;;;;5069567;28;20074;-66
2021/12/24 05:51:28;;;;;;;5.65;3.38;;;7.70;99.90;;;;;;5068920;28;20721;-65
2021/12/24 05:53:54;;;;;;;6.30;2.95;;;7.80;99.90;;;;;;5071013;28;20032;-65
2021/12/24 05:56:20;;;;;;;3.92;3.42;;;7.80;99.90;;;;;;5070547;28;20115;-66
2021/12/24 05:58:45;;;;;;;4.00;3.22;;;7.80;99.90;;;;;;5072169;28;20123;-67
2021/12/24 06:01:11;;;;;;;5.00;3.40;;;7.90;99.90;;;;;;5065672;28;20040;-66
2021/12/24 06:03:37;;;;;;;6.15;3.55;;;7.90;99.90;;;;;;5064863;28;20143;-66
2021/12/24 06:06:03;;;;;;;4.05;2.95;;;7.90;99.90;;;;;;5068941;28;20169;-67
2021/12/24 06:08:28;;;;;;;6.97;3.22;;;7.90;99.90;;;;;;5068313;28;20069;-68
2021/12/24 06:10:55;;;;;;;6.53;2.92;;;8.00;99.90;;;;;;5068212;28;20073;-66
2021/12/24 06:13:23;;;;;;;5.35;3.40;;;8.00;99.90;;;;;;5069079;28;20050;-67
2021/12/24 06:15:51;;;;;;;4.60;3.13;;;8.00;99.90;;;;;;5069745;28;20056;-67
2021/12/24 06:18:28;;;;;;;6.05;3.28;;;8.10;99.90;;;;;;5067534;28;20392;-67
2021/12/24 06:20:56;;;;;;;3.25;2.85;;;8.10;99.90;;;;;;5069110;28;20047;-66
2021/12/24 06:23:23;;;;;;;6.35;2.92;;;8.10;99.90;;;;;;5069806;28;20071;-67
2021/12/24 06:25:51;;;;;;;5.25;2.92;;;8.10;99.90;;;;;;5068575;28;20392;-67
2021/12/24 06:28:17;;;;;;;5.05;3.10;;;8.20;99.90;;;;;;5060650;28;20029;-66
2021/12/24 06:30:43;;;;;;;7.63;3.63;;;8.20;99.90;;;;;;5069168;28;20105;-67
2021/12/24 06:33:09;;;;;;;3.65;3.00;;;8.20;99.90;;;;;;5067747;28;20082;-68
2021/12/24 06:35:35;;;;;;;4.88;3.65;;;8.20;99.90;;;;;;5067708;28;20099;-66
2021/12/24 06:38:01;;;;;;;4.97;3.83;;;8.20;99.90;;;;;;5068262;28;20138;-67
2021/12/24 06:40:27;;;;;;;6.00;3.53;;;8.20;99.90;;;;;;5067412;28;20408;-67
2021/12/24 06:42:53;;;;;;;6.15;3.28;;;8.30;99.90;;;;;;5064786;28;20476;-67
2021/12/24 06:45:23;;;;;;;5.07;3.33;;;8.30;99.90;;;;;;5073049;28;20073;-69
2021/12/24 06:47:50;;;;;;;4.32;3.22;;;8.30;99.90;;;;;;5063373;28;20025;-66
2021/12/24 06:50:16;;;;;;;4.30;3.53;;;8.30;99.90;;;;;;5068648;28;20090;-69
2021/12/24 06:52:41;;;;;;;3.90;3.25;;;8.30;99.90;;;;;;5067962;28;20024;-67
2021/12/24 06:55:08;;;;;;;6.90;4.25;;;8.30;99.90;;;;;;5068877;28;20035;-66
2021/12/24 06:57:34;;;;;;;5.00;3.28;;;8.30;99.90;;;;;;5067801;28;20510;-68
2021/12/24 06:59:59;;;;;;;7.50;3.80;;;8.30;99.90;;;;;;5063867;28;20035;-65
2021/12/24 07:02:25;;;;;;;5.05;3.17;;;8.40;99.90;;;;;;5065669;28;20055;-66
2021/12/24 07:04:51;;;;;;;5.15;3.20;;;8.40;99.90;;;;;;5064430;28;20056;-66
2021/12/24 07:07:16;;;;;;;5.15;3.45;;;8.40;99.90;;;;;;5066725;28;20055;-66
2021/12/24 07:09:42;;;;;;;6.97;5.30;;;8.40;99.90;;;;;;5067184;28;20081;-67
2021/12/24 07:12:13;;;;;;;5.50;3.55;;;8.40;99.90;;;;;;5064178;28;20097;-67
2021/12/24 07:14:41;;;;;;;5.60;3.60;;;8.40;99.90;;;;;;5060702;28;20532;-66
2021/12/24 07:17:07;;;;;;;6.75;3.95;;;8.30;99.90;;;;;;5060282;28;20107;-66
2021/12/24 07:19:34;;;;;;;5.85;3.90;;;8.30;99.90;;;;;;5067540;28;20035;-66
2021/12/24 07:22:00;;;;;;;8.75;3.63;;;8.30;99.90;;;;;;5068309;28;20037;-66
2021/12/24 07:24:26;;;;;;;9.35;5.50;;;8.40;99.90;;;;;;5068056;28;20028;-66
2021/12/24 07:26:51;;;;;;;8.63;4.10;;;8.40;99.90;;;;;;5065792;28;20389;-66
2021/12/24 07:29:17;;;;;;;9.15;4.43;;;8.30;99.90;;;;;;5064342;28;20488;-67
2021/12/24 07:31:43;;;;;;;6.35;4.03;;;8.30;99.90;;;;;;5072569;28;20078;-68
2021/12/24 07:34:08;;;;;;;5.93;3.90;;;8.30;99.90;;;;;;5067045;28;20027;-66
2021/12/24 07:36:34;;;;;;;9.25;5.80;;;8.30;99.90;;;;;;5079238;28;20024;-67
2021/12/24 07:39:00;;;;;;;7.35;4.63;;;8.30;99.90;;;;;;5063857;28;20071;-67
2021/12/24 07:41:26;;;;;;;10.02;4.40;;;8.30;99.90;;;;;;5066570;28;20120;-67
2021/12/24 07:43:52;;;;;;;7.40;3.95;;;8.40;99.90;;;;;;5067506;28;20101;-67
2021/12/24 07:46:19;;;;;;;6.10;4.68;;;8.40;99.90;;;;;;5070874;28;20024;-66
2021/12/24 07:48:48;;;;;;;6.57;4.68;;;8.40;99.90;;;;;;5070920;28;20123;-67
2021/12/24 07:54:00;;;;;;;7.45;4.60;;;8.40;99.90;;;;;;5071309;28;20582;-67
2021/12/24 07:56:30;;;;;;;6.85;4.65;;;8.40;99.90;;;;;;5072847;28;20017;-67
2021/12/24 07:58:57;;;;;;;6.15;4.78;;;8.40;99.90;;;;;;5067314;28;20035;-67
2021/12/24 08:01:27;;;;;;;7.47;4.88;;;8.50;99.90;;;;;;5071034;28;20509;-67
2021/12/24 08:03:54;;;;;;;6.45;4.78;;;8.50;99.90;;;;;;5070426;28;20094;-66
2021/12/24 08:06:23;;;;;;;7.93;4.78;;;8.50;99.90;;;;;;5063730;28;20029;-67
2021/12/24 08:08:49;;;;;;;7.25;5.28;;;8.60;99.90;;;;;;5070131;28;20028;-67
2021/12/24 08:11:15;;;;;;;9.20;5.65;;;8.50;99.90;;;;;;5071831;28;20020;-67
2021/12/24 08:13:41;;;;;;;9.57;5.05;;;8.60;99.90;;;;;;5073035;28;20385;-67
2021/12/24 08:16:08;;;;;;;9.32;5.88;;;8.60;99.90;;;;;;5072326;28;20020;-66
2021/12/24 08:18:33;;;;;;;10.15;5.10;;;8.60;99.90;;;;;;5068072;28;20107;-66
2021/12/24 08:20:59;;;;;;;8.90;5.35;;;8.60;99.90;;;;;;5068813;28;20107;-68
2021/12/24 08:23:25;;;;;;;9.57;5.65;;;8.60;99.90;;;;;;5079297;28;20029;-68
2021/12/24 08:25:58;;;;;;;10.35;6.55;;;8.60;99.90;;;;;;5072709;28;20024;-66
2021/12/24 08:28:24;;;;;;;10.82;6.90;;;8.60;99.90;;;;;;5070976;28;20025;-66
2021/12/24 08:30:49;;;;;;;13.32;6.28;;;8.60;99.90;;;;;;5086726;28;20107;-65
2021/12/24 08:33:15;;;;;;;11.65;7.47;;;8.60;99.90;;;;;;5071744;28;20124;-67
2021/12/24 08:35:41;;;;;;;11.43;6.93;;;8.60;99.90;;;;;;5071278;28;20107;-66
2021/12/24 08:38:07;;;;;;;10.93;6.90;;;8.70;99.90;;;;;;5061318;28;20187;-65
2021/12/24 08:40:33;;;;;;;9.05;5.38;;;8.70;99.90;;;;;;5071198;28;20051;-64
2021/12/24 08:43:00;;;;;;;8.15;5.50;;;8.70;99.90;;;;;;5071202;28;20477;-64
2021/12/24 08:45:26;;;;;;;7.63;5.70;;;8.60;99.90;;;;;;5069238;28;20063;-64
2021/12/24 08:47:51;;;;;;;11.50;6.53;;;8.70;99.90;;;;;;5065381;28;20056;-65
2021/12/24 08:50:17;;;;;;;8.00;4.55;;;8.60;99.90;;;;;;5071691;28;20032;-66
2021/12/24 08:52:44;;;;;;;10.32;5.50;;;8.60;99.90;;;;;;5069818;28;20116;-65
2021/12/24 08:55:11;;;;;;;7.28;5.18;;;8.70;99.90;;;;;;5068718;28;20034;-64
2021/12/24 08:57:38;;;;;;;8.77;5.15;;;8.70;99.90;;;;;;5067377;28;20384;-67
2021/12/24 09:00:06;;;;;;;9.27;5.30;;;8.60;99.90;;;;;;5070186;28;20499;-66
2021/12/24 09:02:31;;;;;;;8.65;5.03;;;8.60;99.90;;;;;;5069418;28;20029;-68
2021/12/24 09:04:57;;;;;;;7.25;5.00;;;8.60;99.90;;;;;;5064531;28;20044;-65
2021/12/24 09:07:23;;;;;;;10.68;4.97;;;8.70;99.90;;;;;;5070467;28;20036;-66
2021/12/24 09:09:51;;;;;;;10.25;4.95;;;8.70;99.90;;;;;;5071074;28;20420;-67
2021/12/24 09:12:17;;;;;;;6.25;4.80;;;8.70;99.90;;;;;;5065534;28;20071;-66
2021/12/24 09:14:43;;;;;;;9.63;5.93;;;8.70;99.90;;;;;;5071297;28;20059;-66
2021/12/24 09:17:08;;;;;;;12.57;5.03;;;8.70;99.90;;;;;;5071190;22;20044;-65
2021/12/24 09:19:44;;;;;;;7.95;5.05;;;8.70;99.90;;;;;;5031704;28;20036;-68
2021/12/24 09:22:16;;;;;;;6.70;4.95;;;8.70;99.90;;;;;;5021617;28;20511;-68
2021/12/24 09:24:42;;;;;;;8.63;5.22;;;8.70;99.90;;;;;;5004182;28;20075;-69
2021/12/24 09:27:08;;;;;;;9.80;5.65;;;8.70;99.90;;;;;;5011170;28;20030;-66
2021/12/24 09:29:34;;;;;;;9.25;4.88;;;8.70;99.90;;;;;;5013980;28;20037;-68
2021/12/24 09:32:00;;;;;;;9.05;4.60;;;8.70;99.90;;;;;;5014384;28;20032;-68
2021/12/24 09:34:25;;;;;;;8.77;5.20;;;8.70;99.90;;;;;;5009448;28;20383;-68
2021/12/24 09:36:52;;;;;;;9.90;5.10;;;8.70;99.90;;;;;;5009304;28;20026;-69
2021/12/24 09:39:18;;;;;;;8.98;6.88;;;8.70;99.90;;;;;;5007438;28;20117;-67
2021/12/24 09:41:44;;;;;;;7.72;5.90;;;8.80;99.90;;;;;;5018802;28;20394;-69
2021/12/24 09:44:10;;;;;;;9.23;7.22;;;8.70;99.90;;;;;;5014848;28;20057;-67
2021/12/24 09:46:41;;;;;;;8.57;5.05;;;8.70;99.90;;;;;;5009431;28;20065;-68
2021/12/24 09:49:08;;;;;;;8.45;4.93;;;8.80;99.90;;;;;;5011019;28;20490;-66
2021/12/24 09:51:40;;;;;;;8.85;5.10;;;8.80;99.90;;;;;;5010596;28;20037;-67
2021/12/24 09:54:11;;;;;;;;;;;8.80;99.90;;;;;;5012076;28;20026;-65
2021/12/24 09:56:37;;;;;;;8.45;5.57;;;8.80;99.90;;;;;;5015644;28;19912;-69
2021/12/24 09:59:03;;;;;;;9.40;5.13;;;8.70;99.90;;;;;;5007718;28;20042;-67
2021/12/24 10:01:31;;;;;;;9.10;5.57;;;8.80;99.90;;;;;;5010822;28;20657;-67
2021/12/24 10:04:04;;;;;;;10.40;5.13;;;8.70;99.90;;;;;;5016075;28;20056;-67
2021/12/24 10:06:31;;;;;;;10.77;6.43;;;8.80;99.90;;;;;;5012317;28;20030;-66
2021/12/24 10:09:09;;;;;;;11.80;6.68;;;8.80;99.90;;;;;;5007669;28;20561;-65
2021/12/24 10:11:49;;;;;;;10.18;6.07;;;8.80;99.90;;;;;;5010562;28;20022;-65
2021/12/24 10:14:17;;;;;;;8.82;5.30;;;8.80;99.90;;;;;;5011460;28;20112;-66
2021/12/24 10:16:48;;;;;;;7.43;5.03;;;8.80;99.90;;;;;;5011204;28;20025;-66
2021/12/24 10:19:15;;;;;;;11.43;5.28;;;8.80;99.90;;;;;;5009581;28;20036;-66
2021/12/24 10:21:41;;;;;;;6.68;4.90;;;8.80;99.90;;;;;;5011935;28;20038;-66
2021/12/24 10:24:20;;;;;;;9.45;5.07;;;8.80;99.90;;;;;;5011031;28;20687;-66
2021/12/24 10:26:47;;;;;;;7.40;4.78;;;8.80;99.90;;;;;;5010699;28;20034;-67
2021/12/24 10:29:20;;;;;;;7.20;5.28;;;8.80;99.90;;;;;;5005464;28;20431;-65
2021/12/24 10:31:51;;;;;;;10.65;6.63;;;8.80;99.90;;;;;;5010570;28;20026;-66
2021/12/24 10:34:23;;;;;;;9.00;5.53;;;8.80;99.90;;;;;;5010529;28;20029;-66
2021/12/24 10:37:09;;;;;;;7.80;5.03;;;8.80;99.90;;;;;;5010877;28;20060;-66
2021/12/24 10:39:46;;;;;;;7.13;4.68;;;8.80;99.90;;;;;;5008519;28;20034;-67
2021/12/24 10:42:19;;;;;;;9.88;5.05;;;8.70;99.90;;;;;;5011669;28;20026;-67
2021/12/24 10:44:46;;;;;;;;;;;8.70;99.90;;;;;;5010905;28;20026;-65
2021/12/24 10:47:15;;;;;;;8.00;4.97;;;8.60;99.90;;;;;;5008655;28;20377;-66
2021/12/24 10:54:53;;;;;;;10.50;5.25;;;8.50;99.90;;;;;;5009038;28;20145;-67
2021/12/24 10:57:23;;;;;;;7.90;4.90;;;8.50;99.90;;;;;;5008980;28;20041;-67
2021/12/24 10:59:51;;;;;;;9.15;5.35;;;8.50;99.90;;;;;;5011114;28;20053;-67
2021/12/24 11:02:18;;;;;;;6.40;4.95;;;8.40;99.90;;;;;;5014315;28;20026;-66
2021/12/24 11:04:44;;;;;;;9.35;5.75;;;8.40;99.90;;;;;;5005605;28;20030;-66
2021/12/24 11:07:42;;;;;;;8.43;5.53;;;8.40;99.90;;;;;;5005111;28;20479;-67
2021/12/24 11:10:11;;;;;;;10.68;5.53;;;8.40;99.90;;;;;;5020262;28;20065;-66
2021/12/24 11:12:40;;;;;;;10.30;6.32;;;8.40;99.90;;;;;;5009327;28;20352;-66
2021/12/24 11:15:17;;;;;;;11.73;7.40;;;8.40;99.90;;;;;;5009591;28;20022;-66
2021/12/24 11:17:42;;;;;;;55.97;19.98;;;8.30;99.90;;;;;;5024294;28;20030;-67
2021/12/24 11:20:12;;;;;;;14.48;8.02;;;8.30;99.90;;;;;;5009156;28;20121;-65
2021/12/24 11:22:57;;;;;;;7.60;5.65;;;8.30;99.90;;;;;;5024942;28;20026;-66
2021/12/24 11:25:24;;;;;;;9.23;6.35;;;8.40;99.90;;;;;;5010258;28;20026;-65
2021/12/24 11:27:50;;;;;;;9.63;6.65;;;8.30;99.90;;;;;;5009447;28;20022;-66
2021/12/24 11:30:18;;;;;;;9.13;5.88;;;8.30;99.90;;;;;;5013322;28;20073;-65
2021/12/24 11:32:45;;;;;;;8.90;6.07;;;8.30;99.90;;;;;;5009047;28;20467;-67
2021/12/24 11:35:15;;;;;;;10.77;6.47;;;8.30;99.90;;;;;;5008818;28;20380;-66
2021/12/24 11:37:44;;;;;;;10.13;6.05;;;8.30;99.90;;;;;;5023365;28;20073;-67
2021/12/24 11:40:13;;;;;;;9.45;6.30;;;8.30;99.90;;;;;;5008770;28;20034;-67
2021/12/24 11:42:41;;;;;;;8.38;5.78;;;8.30;99.90;;;;;;5011668;28;20048;-66
2021/12/24 11:45:07;;;;;;;9.90;6.60;;;8.30;99.90;;;;;;5008859;28;20514;-66
2021/12/24 11:47:34;;;;;;;10.90;6.15;;;8.30;99.90;;;;;;5012746;28;20030;-67
2021/12/24 11:50:00;;;;;;;9.10;5.30;;;8.30;99.90;;;;;;5007630;28;20041;-67
2021/12/24 11:52:27;;;;;;;8.88;5.88;;;8.30;99.90;;;;;;5007580;28;20022;-66
2021/12/24 11:54:57;;;;;;;11.98;7.05;;;8.30;99.90;;;;;;5014471;28;20098;-66
2021/12/24 11:57:32;;;;;;;9.27;5.30;;;8.30;99.90;;;;;;5009307;28;20795;-65
2021/12/24 12:00:10;;;;;;;7.63;5.00;;;8.30;99.90;;;;;;5023865;28;20073;-66
2021/12/24 12:02:45;;;;;;;11.25;5.63;;;8.20;99.90;;;;;;5013861;28;20084;-67
2021/12/24 12:05:13;;;;;;;6.38;5.07;;;8.30;99.90;;;;;;5013116;28;20030;-66
2021/12/24 12:07:39;;;;;;;8.52;5.35;;;8.20;99.90;;;;;;5009640;28;20061;-67
2021/12/24 12:10:07;;;;;;;9.00;5.60;;;8.20;99.90;;;;;;5006153;28;20439;-67
2021/12/24 12:12:34;;;;;;;12.13;8.55;;;8.20;99.90;;;;;;5011124;28;20026;-66
2021/12/24 12:15:30;;;;;;;9.77;7.40;;;8.20;99.90;;;;;;5011623;28;20029;-67
2021/12/24 12:18:04;;;;;;;7.85;5.57;;;8.20;99.90;;;;;;5007626;28;20054;-67
2021/12/24 12:20:48;;;;;;;6.15;5.13;;;8.20;99.90;;;;;;5008370;28;20033;-69
2021/12/24 12:26:37;;;;;;;10.13;6.15;;;8.20;99.90;;;;;;5007975;28;20387;-66
2021/12/24 12:29:27;;;;;;;7.20;5.28;;;8.10;99.90;;;;;;5011172;28;20665;-64
2021/12/24 12:31:54;;;;;;;8.52;5.45;;;8.10;99.90;;;;;;5007127;28;20022;-64
2021/12/24 12:34:38;;;;;;;7.22;5.28;;;8.10;99.90;;;;;;5012013;28;20116;-64
2021/12/24 12:37:21;;;;;;;6.32;4.80;;;8.10;99.90;;;;;;5011876;28;20045;-63
2021/12/24 12:39:50;;;;;;;8.88;5.15;;;8.10;99.90;;;;;;5012400;28;20105;-65
2021/12/24 12:42:17;;;;;;;5.97;5.05;;;8.10;99.90;;;;;;5012293;28;20052;-65
2021/12/24 12:44:49;;;;;;;6.10;5.10;;;8.10;99.90;;;;;;5013250;28;20119;-64
2021/12/24 12:47:18;;;;;;;9.45;5.18;;;8.10;99.90;;;;;;5012313;28;20029;-64
2021/12/24 12:49:46;;;;;;;7.55;4.93;;;8.10;99.90;;;;;;5012003;28;20025;-63
2021/12/24 12:52:26;;;;;;;5.85;4.68;;;8.10;99.90;;;;;;5019252;28;20112;-64
2021/12/24 12:54:56;;;;;;;8.10;5.90;;;8.10;99.90;;;;;;5011023;28;20022;-68
2021/12/24 12:57:31;;;;;;;8.25;5.68;;;8.00;99.90;;;;;;5010947;28;20387;-65
2021/12/24 13:00:17;;;;;;;8.75;5.60;;;8.10;99.90;;;;;;5012679;28;20077;-66
2021/12/24 13:05:28;;;;;;;7.93;5.18;;;8.10;99.90;;;;;;5005530;28;20348;-65
2021/12/24 13:07:59;;;;;;;6.30;5.20;;;8.00;99.90;;;;;;5010169;28;20053;-67
2021/12/24 13:10:26;;;;;;;11.07;7.85;;;8.00;99.90;;;;;;5008676;28;20030;-65
2021/12/24 13:13:04;;;;;;;14.18;10.88;;;8.00;99.90;;;;;;5019400;28;20084;-64
2021/12/24 13:15:31;;;;;;;10.90;6.90;;;8.00;99.90;;;;;;5028473;28;20414;-64
2021/12/24 13:18:02;;;;;;;12.50;8.02;;;8.00;99.90;;;;;;5009782;28;20412;-65
2021/12/24 13:20:45;;;;;;;7.35;5.32;;;8.00;99.90;;;;;;5008645;28;20610;-65
2021/12/24 13:23:23;;;;;;;7.82;5.25;;;8.00;99.90;;;;;;5012109;28;20119;-66
2021/12/24 13:25:48;;;;;;;7.68;4.90;;;8.00;99.90;;;;;;5011494;28;20038;-66
2021/12/24 13:28:14;;;;;;;7.78;4.75;;;8.00;99.90;;;;;;5011131;28;20049;-64
2021/12/24 13:30:40;;;;;;;8.90;6.68;;;8.00;99.90;;;;;;5011698;28;20681;-65
2021/12/24 13:33:08;;;;;;;8.10;6.00;;;8.00;99.90;;;;;;5011267;28;20057;-65
2021/12/24 13:35:42;;;;;;;8.20;5.70;;;8.00;99.90;;;;;;5011320;28;20413;-65
2021/12/24 13:38:16;;;;;;;7.35;5.45;;;8.00;99.90;;;;;;5011272;28;20030;-68
2021/12/24 13:40:42;;;;;;;8.93;5.45;;;8.00;99.90;;;;;;5010823;28;20048;-64
2021/12/24 13:43:12;;;;;;;7.93;5.55;;;8.00;99.90;;;;;;5007431;28;20355;-64
2021/12/24 13:45:39;;;;;;;6.40;5.13;;;8.00;99.90;;;;;;5025272;28;20390;-64
2021/12/24 13:48:14;;;;;;;6.53;4.10;;;8.00;99.90;;;;;;5009423;28;20155;-64
2021/12/24 13:56:21;;;;;;;8.05;4.15;;;8.00;99.90;;;;;;5009866;28;20061;-65
2021/12/24 13:58:55;;;;;;;5.07;3.78;;;8.10;99.90;;;;;;5007756;28;20045;-65
2021/12/24 14:01:30;;;;;;;7.18;4.18;;;8.10;99.90;;;;;;5009567;28;20120;-64
2021/12/24 14:03:57;;;;;;;5.05;3.90;;;8.00;99.90;;;;;;5019722;28;20053;-65
2021/12/24 14:06:41;;;;;;;4.35;3.58;;;8.10;99.90;;;;;;5009353;28;20516;-65
2021/12/24 14:09:09;;;;;;;6.75;4.50;;;8.10;99.90;;;;;;5026099;28;20406;-63
2021/12/24 14:11:37;;;;;;;4.78;3.85;;;8.10;99.90;;;;;;5008981;28;20153;-60
2021/12/24 14:14:08;;;;;;;4.40;3.85;;;8.10;99.90;;;;;;5011326;28;20030;-63
2021/12/24 14:19:30;;;;;;;7.20;4.38;;;8.10;99.90;;;;;;5005188;28;20315;-62
2021/12/24 14:22:14;;;;;;;6.70;4.22;;;8.10;99.90;;;;;;5009528;28;20029;-65
2021/12/24 14:24:52;;;;;;;4.75;4.00;;;8.20;99.90;;;;;;5001700;28;20083;-64
2021/12/24 14:27:27;;;;;;;6.45;4.30;;;8.10;99.90;;;;;;5004761;28;20121;-64
2021/12/24 14:30:05;;;;;;;8.70;5.75;;;8.20;99.90;;;;;;5006983;28;20034;-64
2021/12/24 14:32:36;;;;;;;10.88;5.53;;;8.10;99.90;;;;;;4996148;28;20026;-65
2021/12/24 14:35:19;;;;;;;17.08;10.30;;;8.10;99.90;;;;;;5000563;28;20030;-65
2021/12/24 14:37:57;;;;;;;16.67;8.75;;;8.10;99.90;;;;;;5004596;28;20125;-63
2021/12/24 14:40:24;;;;;;;16.50;7.32;;;8.10;99.90;;;;;;5022805;28;20022;-66
2021/12/24 14:42:51;;;;;;;12.40;6.72;;;8.10;99.90;;;;;;5004871;28;20354;-61
2021/12/24 14:45:23;;;;;;;8.30;5.07;;;8.10;99.90;;;;;;5006070;28;20053;-61
2021/12/24 14:48:06;;;;;;;12.95;6.72;;;8.10;99.90;;;;;;5003382;28;20044;-66
2021/12/24 14:50:44;;;;;;;18.10;9.93;;;8.10;99.90;;;;;;5009210;28;20040;-62
2021/12/24 14:53:12;;;;;;;7.32;4.93;;;8.10;99.90;;;;;;5003204;28;20026;-66
2021/12/24 14:55:45;;;;;;;8.70;5.28;;;8.00;99.90;;;;;;5006019;28;20058;-61
2021/12/24 14:58:13;;;;;;;9.38;4.35;;;8.10;99.90;;;;;;5006528;28;20022;-61
2021/12/24 15:00:45;;;;;;;5.82;5.22;;;8.10;99.90;;;;;;5005186;28;20025;-65
2021/12/24 15:03:16;;;;;;;;;;;8.00;99.90;;;;;;5015364;28;20025;-64
2021/12/24 15:05:47;;;;;;;9.90;7.55;;;8.00;99.90;;;;;;5004902;28;20369;-64